sensor_id;sensor_type;location;lat;lon;timestamp;P1;durP1;ratioP1;P2;durP2;ratioP2
37831;SDS011;23671;38.090;-122.570;2022-12-11T00:02:09;9.98;;;2.72;;
37831;SDS011;23671;38.090;-122.570;2022-12-11T00:04:36;9.98;;;2.65;;
37831;SDS011;23671;38.090;-122.570;2022-12-11T00:07:03;10.77;;;3.35;;
37831;SDS011;23671;38.090;-122.570;2022-12-11T00:09:30;8.00;;;2.78;;
37831;SDS011;23671;38.090;-122.570;2022-12-11T00:11:57;10.88;;;3.22;;
37831;SDS011;23671;38.090;-122.570;2022-12-11T00:14:24;9.75;;;2.85;;
37831;SDS011;23671;38.090;-122.570;2022-12-11T00:16:51;8.95;;;2.78;;
37831;SDS011;23671;38.090;-122.570;2022-12-11T00:19:18;9.88;;;2.97;;
37831;SDS011;23671;38.090;-122.570;2022-12-11T00:21:45;9.77;;;3.22;;
37831;SDS011;23671;38.090;-122.570;2022-12-11T00:24:12;5.18;;;2.38;;
37831;SDS011;23671;38.090;-122.570;2022-12-11T00:26:39;8.20;;;2.58;;
37831;SDS011;23671;38.090;-122.570;2022-12-11T00:29:06;10.43;;;2.50;;
37831;SDS011;23671;38.090;-122.570;2022-12-11T00:31:39;6.22;;;2.10;;
37831;SDS011;23671;38.090;-122.570;2022-12-11T00:34:07;5.93;;;2.45;;
37831;SDS011;23671;38.090;-122.570;2022-12-11T00:36:34;6.80;;;2.80;;
37831;SDS011;23671;38.090;-122.570;2022-12-11T00:39:01;12.05;;;2.95;;
37831;SDS011;23671;38.090;-122.570;2022-12-11T00:41:29;8.10;;;2.55;;
37831;SDS011;23671;38.090;-122.570;2022-12-11T00:43:56;10.95;;;2.53;;
37831;SDS011;23671;38.090;-122.570;2022-12-11T00:46:23;6.07;;;2.38;;
37831;SDS011;23671;38.090;-122.570;2022-12-11T00:48:50;8.07;;;2.30;;
37831;SDS011;23671;38.090;-122.570;2022-12-11T00:51:17;6.75;;;2.42;;
37831;SDS011;23671;38.090;-122.570;2022-12-11T00:53:45;6.38;;;2.15;;
37831;SDS011;23671;38.090;-122.570;2022-12-11T00:56:13;7.38;;;2.30;;
37831;SDS011;23671;38.090;-122.570;2022-12-11T00:58:41;9.65;;;2.05;;
37831;SDS011;23671;38.090;-122.570;2022-12-11T01:01:10;9.75;;;2.55;;
37831;SDS011;23671;38.090;-122.570;2022-12-11T01:03:39;6.90;;;2.30;;
37831;SDS011;23671;38.090;-122.570;2022-12-11T01:06:07;10.52;;;2.22;;
37831;SDS011;23671;38.090;-122.570;2022-12-11T01:08:37;5.65;;;1.90;;
37831;SDS011;23671;38.090;-122.570;2022-12-11T01:11:05;6.57;;;1.88;;
37831;SDS011;23671;38.090;-122.570;2022-12-11T01:13:35;8.90;;;2.08;;
37831;SDS011;23671;38.090;-122.570;2022-12-11T01:16:09;8.20;;;2.22;;
37831;SDS011;23671;38.090;-122.570;2022-12-11T01:18:38;10.40;;;1.92;;
37831;SDS011;23671;38.090;-122.570;2022-12-11T01:21:07;6.53;;;1.70;;
37831;SDS011;23671;38.090;-122.570;2022-12-11T01:26:09;5.40;;;1.58;;
37831;SDS011;23671;38.090;-122.570;2022-12-11T01:28:38;9.07;;;1.58;;
37831;SDS011;23671;38.090;-122.570;2022-12-11T01:31:11;5.68;;;1.67;;
37831;SDS011;23671;38.090;-122.570;2022-12-11T01:33:40;8.02;;;1.80;;
37831;SDS011;23671;38.090;-122.570;2022-12-11T01:38:45;8.23;;;1.77;;
37831;SDS011;23671;38.090;-122.570;2022-12-11T01:41:14;5.25;;;1.52;;
37831;SDS011;23671;38.090;-122.570;2022-12-11T01:46:33;6.50;;;1.55;;
37831;SDS011;23671;38.090;-122.570;2022-12-11T01:49:02;6.07;;;1.38;;
37831;SDS011;23671;38.090;-122.570;2022-12-11T01:51:39;5.97;;;1.50;;
37831;SDS011;23671;38.090;-122.570;2022-12-11T01:54:13;8.00;;;1.80;;
37831;SDS011;23671;38.090;-122.570;2022-12-11T01:56:42;5.70;;;1.48;;
37831;SDS011;23671;38.090;-122.570;2022-12-11T01:59:11;4.32;;;1.38;;
37831;SDS011;23671;38.090;-122.570;2022-12-11T02:01:47;7.63;;;1.70;;
37831;SDS011;23671;38.090;-122.570;2022-12-11T02:04:19;7.72;;;1.75;;
37831;SDS011;23671;38.090;-122.570;2022-12-11T02:06:48;9.50;;;2.30;;
37831;SDS011;23671;38.090;-122.570;2022-12-11T02:09:18;8.82;;;1.95;;
37831;SDS011;23671;38.090;-122.570;2022-12-11T02:28:30;6.57;;;2.53;;
37831;SDS011;23671;38.090;-122.570;2022-12-11T02:36:11;5.80;;;1.73;;
37831;SDS011;23671;38.090;-122.570;2022-12-11T02:38:42;3.90;;;1.55;;
37831;SDS011;23671;38.090;-122.570;2022-12-11T02:41:15;6.90;;;2.20;;
37831;SDS011;23671;38.090;-122.570;2022-12-11T02:43:44;6.97;;;1.85;;
37831;SDS011;23671;38.090;-122.570;2022-12-11T02:48:42;4.20;;;1.65;;
37831;SDS011;23671;38.090;-122.570;2022-12-11T02:51:11;7.03;;;1.95;;
37831;SDS011;23671;38.090;-122.570;2022-12-11T02:53:41;11.38;;;2.85;;
37831;SDS011;23671;38.090;-122.570;2022-12-11T02:56:12;15.75;;;4.00;;
37831;SDS011;23671;38.090;-122.570;2022-12-11T02:58:53;10.45;;;3.60;;
37831;SDS011;23671;38.090;-122.570;2022-12-11T03:01:25;9.98;;;2.83;;
37831;SDS011;23671;38.090;-122.570;2022-12-11T03:03:53;7.80;;;2.30;;
37831;SDS011;23671;38.090;-122.570;2022-12-11T03:06:21;8.75;;;2.40;;
37831;SDS011;23671;38.090;-122.570;2022-12-11T03:08:53;10.02;;;2.65;;
37831;SDS011;23671;38.090;-122.570;2022-12-11T03:11:20;9.77;;;2.90;;
37831;SDS011;23671;38.090;-122.570;2022-12-11T03:13:48;8.00;;;2.58;;
37831;SDS011;23671;38.090;-122.570;2022-12-11T03:19:36;7.18;;;2.53;;
37831;SDS011;23671;38.090;-122.570;2022-12-11T03:25:25;7.65;;;2.10;;
37831;SDS011;23671;38.090;-122.570;2022-12-11T03:28:04;8.95;;;2.55;;
37831;SDS011;23671;38.090;-122.570;2022-12-11T03:30:44;6.63;;;1.77;;
37831;SDS011;23671;38.090;-122.570;2022-12-11T03:33:33;6.63;;;1.90;;
37831;SDS011;23671;38.090;-122.570;2022-12-11T03:39:15;5.88;;;1.98;;
37831;SDS011;23671;38.090;-122.570;2022-12-11T03:41:27;7.57;;;2.30;;
37831;SDS011;23671;38.090;-122.570;2022-12-11T03:43:58;6.70;;;1.92;;
37831;SDS011;23671;38.090;-122.570;2022-12-11T03:46:44;5.78;;;1.50;;
37831;SDS011;23671;38.090;-122.570;2022-12-11T03:49:15;12.60;;;2.47;;
37831;SDS011;23671;38.090;-122.570;2022-12-11T03:51:49;8.85;;;2.35;;
37831;SDS011;23671;38.090;-122.570;2022-12-11T03:54:18;6.25;;;1.95;;
37831;SDS011;23671;38.090;-122.570;2022-12-11T03:56:47;6.78;;;1.60;;
37831;SDS011;23671;38.090;-122.570;2022-12-11T03:59:18;4.40;;;1.60;;
37831;SDS011;23671;38.090;-122.570;2022-12-11T04:01:45;8.77;;;1.70;;
37831;SDS011;23671;38.090;-122.570;2022-12-11T04:04:12;6.28;;;1.50;;
37831;SDS011;23671;38.090;-122.570;2022-12-11T04:06:39;4.68;;;1.35;;
37831;SDS011;23671;38.090;-122.570;2022-12-11T04:09:06;6.75;;;1.55;;
37831;SDS011;23671;38.090;-122.570;2022-12-11T04:11:33;5.05;;;1.52;;
37831;SDS011;23671;38.090;-122.570;2022-12-11T04:14:11;4.72;;;1.45;;
37831;SDS011;23671;38.090;-122.570;2022-12-11T04:16:57;3.85;;;1.40;;
37831;SDS011;23671;38.090;-122.570;2022-12-11T04:19:26;4.70;;;1.40;;
37831;SDS011;23671;38.090;-122.570;2022-12-11T04:22:12;4.38;;;1.45;;
37831;SDS011;23671;38.090;-122.570;2022-12-11T04:24:59;4.40;;;1.20;;
37831;SDS011;23671;38.090;-122.570;2022-12-11T04:27:27;4.60;;;1.23;;
37831;SDS011;23671;38.090;-122.570;2022-12-11T04:30:13;3.83;;;1.10;;
37831;SDS011;23671;38.090;-122.570;2022-12-11T04:32:43;5.05;;;1.42;;
37831;SDS011;23671;38.090;-122.570;2022-12-11T04:35:10;3.25;;;1.27;;
37831;SDS011;23671;38.090;-122.570;2022-12-11T04:37:38;3.58;;;1.20;;
37831;SDS011;23671;38.090;-122.570;2022-12-11T04:40:06;3.70;;;0.88;;
37831;SDS011;23671;38.090;-122.570;2022-12-11T04:45:40;3.65;;;1.20;;
37831;SDS011;23671;38.090;-122.570;2022-12-11T04:48:07;4.25;;;1.67;;
37831;SDS011;23671;38.090;-122.570;2022-12-11T04:50:34;3.90;;;0.90;;
37831;SDS011;23671;38.090;-122.570;2022-12-11T04:53:01;3.35;;;1.15;;
37831;SDS011;23671;38.090;-122.570;2022-12-11T04:55:28;3.08;;;1.17;;
37831;SDS011;23671;38.090;-122.570;2022-12-11T04:57:55;4.75;;;1.00;;
37831;SDS011;23671;38.090;-122.570;2022-12-11T05:00:22;2.70;;;0.98;;
37831;SDS011;23671;38.090;-122.570;2022-12-11T05:02:49;3.05;;;1.02;;
37831;SDS011;23671;38.090;-122.570;2022-12-11T05:05:16;2.17;;;0.93;;
37831;SDS011;23671;38.090;-122.570;2022-12-11T05:07:43;3.85;;;1.58;;
37831;SDS011;23671;38.090;-122.570;2022-12-11T05:10:11;12.82;;;1.73;;
37831;SDS011;23671;38.090;-122.570;2022-12-11T05:12:38;3.13;;;1.10;;
37831;SDS011;23671;38.090;-122.570;2022-12-11T05:15:05;3.45;;;1.15;;
37831;SDS011;23671;38.090;-122.570;2022-12-11T05:17:32;5.30;;;1.42;;
37831;SDS011;23671;38.090;-122.570;2022-12-11T05:19:59;5.25;;;1.10;;
37831;SDS011;23671;38.090;-122.570;2022-12-11T05:22:26;3.92;;;1.00;;
37831;SDS011;23671;38.090;-122.570;2022-12-11T05:24:56;3.67;;;0.90;;
37831;SDS011;23671;38.090;-122.570;2022-12-11T05:27:23;3.22;;;1.20;;
37831;SDS011;23671;38.090;-122.570;2022-12-11T05:29:50;4.32;;;1.20;;
37831;SDS011;23671;38.090;-122.570;2022-12-11T05:32:17;3.55;;;1.15;;
37831;SDS011;23671;38.090;-122.570;2022-12-11T05:34:44;2.85;;;1.20;;
37831;SDS011;23671;38.090;-122.570;2022-12-11T05:37:11;5.32;;;1.85;;
37831;SDS011;23671;38.090;-122.570;2022-12-11T05:39:38;5.63;;;1.10;;
37831;SDS011;23671;38.090;-122.570;2022-12-11T05:42:05;4.22;;;1.52;;
37831;SDS011;23671;38.090;-122.570;2022-12-11T05:44:32;5.03;;;1.33;;
37831;SDS011;23671;38.090;-122.570;2022-12-11T05:46:59;3.30;;;1.25;;
37831;SDS011;23671;38.090;-122.570;2022-12-11T05:49:26;3.13;;;1.00;;
37831;SDS011;23671;38.090;-122.570;2022-12-11T05:51:53;5.00;;;1.60;;
37831;SDS011;23671;38.090;-122.570;2022-12-11T05:54:20;2.83;;;1.30;;
37831;SDS011;23671;38.090;-122.570;2022-12-11T05:56:48;3.33;;;1.50;;
37831;SDS011;23671;38.090;-122.570;2022-12-11T05:59:18;2.90;;;1.30;;
37831;SDS011;23671;38.090;-122.570;2022-12-11T06:01:45;4.35;;;1.58;;
37831;SDS011;23671;38.090;-122.570;2022-12-11T06:04:12;3.33;;;1.23;;
37831;SDS011;23671;38.090;-122.570;2022-12-11T06:06:40;3.45;;;1.35;;
37831;SDS011;23671;38.090;-122.570;2022-12-11T06:09:13;2.92;;;1.20;;
37831;SDS011;23671;38.090;-122.570;2022-12-11T06:11:41;3.20;;;1.23;;
37831;SDS011;23671;38.090;-122.570;2022-12-11T06:14:09;6.30;;;1.67;;
37831;SDS011;23671;38.090;-122.570;2022-12-11T06:16:38;3.90;;;1.38;;
37831;SDS011;23671;38.090;-122.570;2022-12-11T06:19:05;5.47;;;1.45;;
37831;SDS011;23671;38.090;-122.570;2022-12-11T06:21:37;5.68;;;1.58;;
37831;SDS011;23671;38.090;-122.570;2022-12-11T06:24:04;2.15;;;1.30;;
37831;SDS011;23671;38.090;-122.570;2022-12-11T06:26:31;3.33;;;1.52;;
37831;SDS011;23671;38.090;-122.570;2022-12-11T06:28:58;4.60;;;1.60;;
37831;SDS011;23671;38.090;-122.570;2022-12-11T06:31:25;3.55;;;1.23;;
37831;SDS011;23671;38.090;-122.570;2022-12-11T06:33:53;4.35;;;1.30;;
37831;SDS011;23671;38.090;-122.570;2022-12-11T06:36:21;3.30;;;1.30;;
37831;SDS011;23671;38.090;-122.570;2022-12-11T06:38:49;4.93;;;1.40;;
37831;SDS011;23671;38.090;-122.570;2022-12-11T06:41:17;3.45;;;1.13;;
37831;SDS011;23671;38.090;-122.570;2022-12-11T06:43:44;4.20;;;1.25;;
37831;SDS011;23671;38.090;-122.570;2022-12-11T06:46:12;4.03;;;1.42;;
37831;SDS011;23671;38.090;-122.570;2022-12-11T06:48:41;4.28;;;1.35;;
37831;SDS011;23671;38.090;-122.570;2022-12-11T06:51:10;3.17;;;1.70;;
37831;SDS011;23671;38.090;-122.570;2022-12-11T06:53:42;4.25;;;1.35;;
37831;SDS011;23671;38.090;-122.570;2022-12-11T06:56:11;6.05;;;1.42;;
37831;SDS011;23671;38.090;-122.570;2022-12-11T07:01:15;4.60;;;1.20;;
37831;SDS011;23671;38.090;-122.570;2022-12-11T07:06:14;3.63;;;1.10;;
37831;SDS011;23671;38.090;-122.570;2022-12-11T07:08:41;5.72;;;1.38;;
37831;SDS011;23671;38.090;-122.570;2022-12-11T07:11:09;2.47;;;1.30;;
37831;SDS011;23671;38.090;-122.570;2022-12-11T07:13:38;3.13;;;1.10;;
37831;SDS011;23671;38.090;-122.570;2022-12-11T07:16:09;4.00;;;1.45;;
37831;SDS011;23671;38.090;-122.570;2022-12-11T07:18:38;6.03;;;1.30;;
37831;SDS011;23671;38.090;-122.570;2022-12-11T07:21:06;3.03;;;1.08;;
37831;SDS011;23671;38.090;-122.570;2022-12-11T07:23:34;2.35;;;1.02;;
37831;SDS011;23671;38.090;-122.570;2022-12-11T07:26:06;3.65;;;1.15;;
37831;SDS011;23671;38.090;-122.570;2022-12-11T07:28:35;2.92;;;1.10;;
37831;SDS011;23671;38.090;-122.570;2022-12-11T07:31:16;5.15;;;1.38;;
37831;SDS011;23671;38.090;-122.570;2022-12-11T07:33:45;1.70;;;0.93;;
37831;SDS011;23671;38.090;-122.570;2022-12-11T07:36:13;4.15;;;1.17;;
37831;SDS011;23671;38.090;-122.570;2022-12-11T07:38:40;4.57;;;1.00;;
37831;SDS011;23671;38.090;-122.570;2022-12-11T07:41:09;7.55;;;1.17;;
37831;SDS011;23671;38.090;-122.570;2022-12-11T07:43:37;6.75;;;1.08;;
37831;SDS011;23671;38.090;-122.570;2022-12-11T07:46:27;4.72;;;0.90;;
37831;SDS011;23671;38.090;-122.570;2022-12-11T07:48:53;2.90;;;0.90;;
37831;SDS011;23671;38.090;-122.570;2022-12-11T07:53:53;3.72;;;1.00;;
37831;SDS011;23671;38.090;-122.570;2022-12-11T07:56:22;3.63;;;0.73;;
37831;SDS011;23671;38.090;-122.570;2022-12-11T07:58:49;2.75;;;1.00;;
37831;SDS011;23671;38.090;-122.570;2022-12-11T08:01:17;3.72;;;0.68;;
37831;SDS011;23671;38.090;-122.570;2022-12-11T08:03:50;1.98;;;1.00;;
37831;SDS011;23671;38.090;-122.570;2022-12-11T08:06:19;2.15;;;0.85;;
37831;SDS011;23671;38.090;-122.570;2022-12-11T08:08:52;4.10;;;0.90;;
37831;SDS011;23671;38.090;-122.570;2022-12-11T08:11:20;2.33;;;0.77;;
37831;SDS011;23671;38.090;-122.570;2022-12-11T08:13:47;1.80;;;0.65;;
37831;SDS011;23671;38.090;-122.570;2022-12-11T08:16:14;2.13;;;0.70;;
37831;SDS011;23671;38.090;-122.570;2022-12-11T08:18:43;3.83;;;0.90;;
37831;SDS011;23671;38.090;-122.570;2022-12-11T08:21:12;3.10;;;0.80;;
37831;SDS011;23671;38.090;-122.570;2022-12-11T08:23:41;4.47;;;0.80;;
37831;SDS011;23671;38.090;-122.570;2022-12-11T08:26:10;4.18;;;0.60;;
37831;SDS011;23671;38.090;-122.570;2022-12-11T08:28:39;8.02;;;1.58;;
37831;SDS011;23671;38.090;-122.570;2022-12-11T08:31:07;1.95;;;0.75;;
37831;SDS011;23671;38.090;-122.570;2022-12-11T08:36:03;5.57;;;0.75;;
37831;SDS011;23671;38.090;-122.570;2022-12-11T08:38:31;4.37;;;1.00;;
37831;SDS011;23671;38.090;-122.570;2022-12-11T08:41:06;2.65;;;0.73;;
37831;SDS011;23671;38.090;-122.570;2022-12-11T08:43:44;2.13;;;0.70;;
37831;SDS011;23671;38.090;-122.570;2022-12-11T08:46:12;1.15;;;0.60;;
37831;SDS011;23671;38.090;-122.570;2022-12-11T08:48:40;3.75;;;0.85;;
37831;SDS011;23671;38.090;-122.570;2022-12-11T08:51:09;2.03;;;0.70;;
37831;SDS011;23671;38.090;-122.570;2022-12-11T08:53:40;2.78;;;0.90;;
37831;SDS011;23671;38.090;-122.570;2022-12-11T08:56:09;3.13;;;0.90;;
37831;SDS011;23671;38.090;-122.570;2022-12-11T08:58:38;2.50;;;0.77;;
37831;SDS011;23671;38.090;-122.570;2022-12-11T09:01:10;2.03;;;0.70;;
37831;SDS011;23671;38.090;-122.570;2022-12-11T09:03:38;2.65;;;0.80;;
37831;SDS011;23671;38.090;-122.570;2022-12-11T09:06:06;2.38;;;0.80;;
37831;SDS011;23671;38.090;-122.570;2022-12-11T09:08:36;2.67;;;0.60;;
37831;SDS011;23671;38.090;-122.570;2022-12-11T09:11:04;2.92;;;0.70;;
37831;SDS011;23671;38.090;-122.570;2022-12-11T09:13:36;1.42;;;0.75;;
37831;SDS011;23671;38.090;-122.570;2022-12-11T09:16:04;4.00;;;0.70;;
37831;SDS011;23671;38.090;-122.570;2022-12-11T09:18:36;1.17;;;0.60;;
37831;SDS011;23671;38.090;-122.570;2022-12-11T09:21:04;2.45;;;0.70;;
37831;SDS011;23671;38.090;-122.570;2022-12-11T09:23:37;1.83;;;0.70;;
37831;SDS011;23671;38.090;-122.570;2022-12-11T09:26:06;2.92;;;0.43;;
37831;SDS011;23671;38.090;-122.570;2022-12-11T09:28:35;3.20;;;0.68;;
37831;SDS011;23671;38.090;-122.570;2022-12-11T09:31:17;2.95;;;0.70;;
37831;SDS011;23671;38.090;-122.570;2022-12-11T09:33:49;1.90;;;0.80;;
37831;SDS011;23671;38.090;-122.570;2022-12-11T09:36:19;3.25;;;0.70;;
37831;SDS011;23671;38.090;-122.570;2022-12-11T09:38:46;1.88;;;0.75;;
37831;SDS011;23671;38.090;-122.570;2022-12-11T09:46:32;4.22;;;0.82;;
37831;SDS011;23671;38.090;-122.570;2022-12-11T09:49:01;3.20;;;0.70;;
37831;SDS011;23671;38.090;-122.570;2022-12-11T09:51:35;2.05;;;0.98;;
37831;SDS011;23671;38.090;-122.570;2022-12-11T09:54:08;2.05;;;0.57;;
37831;SDS011;23671;38.090;-122.570;2022-12-11T09:56:41;3.70;;;0.70;;
37831;SDS011;23671;38.090;-122.570;2022-12-11T09:59:22;5.15;;;1.08;;
37831;SDS011;23671;38.090;-122.570;2022-12-11T10:07:57;1.48;;;0.47;;
37831;SDS011;23671;38.090;-122.570;2022-12-11T10:16:31;0.68;;;0.47;;
37831;SDS011;23671;38.090;-122.570;2022-12-11T10:18:59;1.83;;;0.90;;
37831;SDS011;23671;38.090;-122.570;2022-12-11T10:21:26;0.95;;;0.57;;
37831;SDS011;23671;38.090;-122.570;2022-12-11T10:24:02;3.03;;;0.60;;
37831;SDS011;23671;38.090;-122.570;2022-12-11T10:26:36;2.10;;;0.80;;
37831;SDS011;23671;38.090;-122.570;2022-12-11T10:31:41;1.75;;;0.60;;
37831;SDS011;23671;38.090;-122.570;2022-12-11T10:36:58;1.13;;;0.57;;
37831;SDS011;23671;38.090;-122.570;2022-12-11T10:39:26;1.20;;;0.75;;
37831;SDS011;23671;38.090;-122.570;2022-12-11T10:41:54;1.08;;;0.60;;
37831;SDS011;23671;38.090;-122.570;2022-12-11T10:52:26;2.50;;;0.50;;
37831;SDS011;23671;38.090;-122.570;2022-12-11T10:58:15;2.22;;;0.70;;
37831;SDS011;23671;38.090;-122.570;2022-12-11T11:00:45;1.75;;;0.60;;
37831;SDS011;23671;38.090;-122.570;2022-12-11T11:03:25;1.92;;;0.60;;
37831;SDS011;23671;38.090;-122.570;2022-12-11T11:08:53;1.08;;;0.40;;
37831;SDS011;23671;38.090;-122.570;2022-12-11T11:14:03;1.63;;;0.68;;
37831;SDS011;23671;38.090;-122.570;2022-12-11T11:16:34;0.47;;;0.32;;
37831;SDS011;23671;38.090;-122.570;2022-12-11T11:19:02;1.95;;;0.60;;
37831;SDS011;23671;38.090;-122.570;2022-12-11T11:21:30;1.15;;;0.50;;
37831;SDS011;23671;38.090;-122.570;2022-12-11T11:23:59;1.23;;;0.60;;
37831;SDS011;23671;38.090;-122.570;2022-12-11T11:26:26;0.63;;;0.30;;
37831;SDS011;23671;38.090;-122.570;2022-12-11T11:28:58;0.77;;;0.40;;
37831;SDS011;23671;38.090;-122.570;2022-12-11T11:31:32;1.08;;;0.52;;
37831;SDS011;23671;38.090;-122.570;2022-12-11T11:34:01;1.02;;;0.43;;
37831;SDS011;23671;38.090;-122.570;2022-12-11T11:36:35;1.00;;;0.43;;
37831;SDS011;23671;38.090;-122.570;2022-12-11T11:42:02;0.63;;;0.50;;
37831;SDS011;23671;38.090;-122.570;2022-12-11T11:44:41;1.02;;;0.43;;
37831;SDS011;23671;38.090;-122.570;2022-12-11T11:47:34;1.98;;;0.52;;
37831;SDS011;23671;38.090;-122.570;2022-12-11T11:50:13;1.03;;;0.20;;
37831;SDS011;23671;38.090;-122.570;2022-12-11T11:55:46;1.40;;;0.40;;
37831;SDS011;23671;38.090;-122.570;2022-12-11T11:58:19;2.78;;;0.45;;
37831;SDS011;23671;38.090;-122.570;2022-12-11T12:00:52;0.52;;;0.30;;
37831;SDS011;23671;38.090;-122.570;2022-12-11T12:03:20;2.92;;;0.85;;
37831;SDS011;23671;38.090;-122.570;2022-12-11T12:14:24;0.57;;;0.20;;
37831;SDS011;23671;38.090;-122.570;2022-12-11T12:31:28;2.10;;;0.47;;
37831;SDS011;23671;38.090;-122.570;2022-12-11T12:44:58;0.95;;;0.30;;
37831;SDS011;23671;38.090;-122.570;2022-12-11T12:47:33;1.60;;;0.45;;
37831;SDS011;23671;38.090;-122.570;2022-12-11T12:50:01;0.70;;;0.20;;
37831;SDS011;23671;38.090;-122.570;2022-12-11T12:52:35;3.33;;;0.30;;
37831;SDS011;23671;38.090;-122.570;2022-12-11T13:03:14;0.50;;;0.10;;
37831;SDS011;23671;38.090;-122.570;2022-12-11T13:05:55;0.43;;;0.10;;
37831;SDS011;23671;38.090;-122.570;2022-12-11T13:08:48;1.20;;;0.50;;
37831;SDS011;23671;38.090;-122.570;2022-12-11T13:11:17;2.30;;;0.20;;
37831;SDS011;23671;38.090;-122.570;2022-12-11T13:16:37;0.20;;;0.13;;
37831;SDS011;23671;38.090;-122.570;2022-12-11T13:19:16;0.73;;;0.30;;
37831;SDS011;23671;38.090;-122.570;2022-12-11T13:24:29;0.60;;;0.30;;
37831;SDS011;23671;38.090;-122.570;2022-12-11T13:29:39;0.68;;;0.10;;
37831;SDS011;23671;38.090;-122.570;2022-12-11T13:34:37;0.30;;;0.20;;
37831;SDS011;23671;38.090;-122.570;2022-12-11T13:37:18;1.08;;;0.20;;
37831;SDS011;23671;38.090;-122.570;2022-12-11T13:39:54;0.30;;;0.20;;
37831;SDS011;23671;38.090;-122.570;2022-12-11T13:42:35;0.60;;;0.13;;
37831;SDS011;23671;38.090;-122.570;2022-12-11T13:45:17;0.32;;;0.10;;
37831;SDS011;23671;38.090;-122.570;2022-12-11T13:47:47;0.70;;;0.08;;
37831;SDS011;23671;38.090;-122.570;2022-12-11T13:50:17;0.70;;;0.13;;
37831;SDS011;23671;38.090;-122.570;2022-12-11T13:52:51;1.60;;;0.30;;
37831;SDS011;23671;38.090;-122.570;2022-12-11T13:55:24;0.28;;;0.10;;
37831;SDS011;23671;38.090;-122.570;2022-12-11T13:57:56;0.47;;;0.20;;
37831;SDS011;23671;38.090;-122.570;2022-12-11T14:00:25;2.58;;;0.20;;
37831;SDS011;23671;38.090;-122.570;2022-12-11T14:02:55;0.10;;;0.10;;
37831;SDS011;23671;38.090;-122.570;2022-12-11T14:05:26;0.80;;;0.20;;
37831;SDS011;23671;38.090;-122.570;2022-12-11T14:07:55;0.32;;;0.10;;
37831;SDS011;23671;38.090;-122.570;2022-12-11T14:10:25;0.70;;;0.10;;
37831;SDS011;23671;38.090;-122.570;2022-12-11T14:12:59;0.10;;;0.10;;
37831;SDS011;23671;38.090;-122.570;2022-12-11T14:15:27;0.55;;;0.10;;
37831;SDS011;23671;38.090;-122.570;2022-12-11T14:17:56;0.20;;;0.20;;
37831;SDS011;23671;38.090;-122.570;2022-12-11T14:20:28;1.27;;;0.28;;
37831;SDS011;23671;38.090;-122.570;2022-12-11T14:23:19;0.13;;;0.10;;
37831;SDS011;23671;38.090;-122.570;2022-12-11T14:28:45;0.10;;;0.10;;
37831;SDS011;23671;38.090;-122.570;2022-12-11T14:31:13;0.40;;;0.20;;
37831;SDS011;23671;38.090;-122.570;2022-12-11T14:33:44;0.20;;;0.10;;
37831;SDS011;23671;38.090;-122.570;2022-12-11T14:36:14;0.68;;;0.20;;
37831;SDS011;23671;38.090;-122.570;2022-12-11T14:38:46;1.85;;;0.47;;
37831;SDS011;23671;38.090;-122.570;2022-12-11T14:41:28;1.00;;;0.20;;
37831;SDS011;23671;38.090;-122.570;2022-12-11T14:44:06;0.90;;;0.60;;
37831;SDS011;23671;38.090;-122.570;2022-12-11T14:46:43;0.75;;;0.10;;
37831;SDS011;23671;38.090;-122.570;2022-12-11T14:51:49;0.40;;;0.15;;
37831;SDS011;23671;38.090;-122.570;2022-12-11T14:54:25;0.65;;;0.20;;
37831;SDS011;23671;38.090;-122.570;2022-12-11T14:57:00;0.08;;;0.08;;
37831;SDS011;23671;38.090;-122.570;2022-12-11T14:59:31;0.20;;;0.10;;
37831;SDS011;23671;38.090;-122.570;2022-12-11T15:07:40;1.10;;;0.30;;
37831;SDS011;23671;38.090;-122.570;2022-12-11T15:10:32;0.70;;;0.28;;
37831;SDS011;23671;38.090;-122.570;2022-12-11T15:13:21;0.68;;;0.10;;
37831;SDS011;23671;38.090;-122.570;2022-12-11T15:15:49;0.63;;;0.20;;
37831;SDS011;23671;38.090;-122.570;2022-12-11T15:18:35;0.85;;;0.20;;
37831;SDS011;23671;38.090;-122.570;2022-12-11T15:21:06;0.35;;;0.20;;
37831;SDS011;23671;38.090;-122.570;2022-12-11T15:26:20;0.10;;;0.00;;
37831;SDS011;23671;38.090;-122.570;2022-12-11T15:29:04;0.00;;;0.00;;
37831;SDS011;23671;38.090;-122.570;2022-12-11T15:31:59;0.65;;;0.20;;
37831;SDS011;23671;38.090;-122.570;2022-12-11T15:34:34;0.40;;;0.20;;
37831;SDS011;23671;38.090;-122.570;2022-12-11T15:37:31;0.13;;;0.13;;
37831;SDS011;23671;38.090;-122.570;2022-12-11T15:40:04;0.10;;;0.10;;
37831;SDS011;23671;38.090;-122.570;2022-12-11T15:42:41;0.32;;;0.10;;
37831;SDS011;23671;38.090;-122.570;2022-12-11T15:45:13;0.43;;;0.20;;
37831;SDS011;23671;38.090;-122.570;2022-12-11T15:47:43;0.10;;;0.10;;
37831;SDS011;23671;38.090;-122.570;2022-12-11T15:50:16;0.30;;;0.20;;
37831;SDS011;23671;38.090;-122.570;2022-12-11T15:52:46;0.77;;;0.10;;
37831;SDS011;23671;38.090;-122.570;2022-12-11T15:55:14;0.63;;;0.10;;
37831;SDS011;23671;38.090;-122.570;2022-12-11T15:57:42;0.17;;;0.13;;
37831;SDS011;23671;38.090;-122.570;2022-12-11T16:00:13;0.28;;;0.15;;
37831;SDS011;23671;38.090;-122.570;2022-12-11T16:02:41;1.23;;;0.10;;
37831;SDS011;23671;38.090;-122.570;2022-12-11T16:05:09;0.55;;;0.10;;
37831;SDS011;23671;38.090;-122.570;2022-12-11T16:07:36;0.45;;;0.17;;
37831;SDS011;23671;38.090;-122.570;2022-12-11T16:10:03;0.65;;;0.20;;
37831;SDS011;23671;38.090;-122.570;2022-12-11T16:12:31;0.50;;;0.20;;
37831;SDS011;23671;38.090;-122.570;2022-12-11T16:14:59;1.08;;;0.05;;
37831;SDS011;23671;38.090;-122.570;2022-12-11T16:17:26;0.73;;;0.20;;
37831;SDS011;23671;38.090;-122.570;2022-12-11T16:19:53;0.88;;;0.10;;
37831;SDS011;23671;38.090;-122.570;2022-12-11T16:22:20;0.65;;;0.30;;
37831;SDS011;23671;38.090;-122.570;2022-12-11T16:24:47;0.73;;;0.30;;
37831;SDS011;23671;38.090;-122.570;2022-12-11T16:27:17;1.75;;;0.20;;
37831;SDS011;23671;38.090;-122.570;2022-12-11T16:29:45;2.75;;;0.45;;
37831;SDS011;23671;38.090;-122.570;2022-12-11T16:32:12;0.63;;;0.10;;
37831;SDS011;23671;38.090;-122.570;2022-12-11T16:34:39;1.38;;;0.17;;
37831;SDS011;23671;38.090;-122.570;2022-12-11T16:37:07;0.38;;;0.10;;
37831;SDS011;23671;38.090;-122.570;2022-12-11T16:39:35;0.73;;;0.20;;
37831;SDS011;23671;38.090;-122.570;2022-12-11T16:42:03;1.87;;;0.30;;
37831;SDS011;23671;38.090;-122.570;2022-12-11T16:44:31;0.45;;;0.17;;
37831;SDS011;23671;38.090;-122.570;2022-12-11T16:46:58;2.20;;;0.20;;
37831;SDS011;23671;38.090;-122.570;2022-12-11T16:49:25;0.10;;;0.10;;
37831;SDS011;23671;38.090;-122.570;2022-12-11T16:51:52;0.80;;;0.20;;
37831;SDS011;23671;38.090;-122.570;2022-12-11T16:54:19;1.83;;;0.25;;
37831;SDS011;23671;38.090;-122.570;2022-12-11T16:56:46;0.38;;;0.10;;
37831;SDS011;23671;38.090;-122.570;2022-12-11T16:59:13;1.30;;;0.10;;
37831;SDS011;23671;38.090;-122.570;2022-12-11T17:01:40;1.27;;;0.20;;
37831;SDS011;23671;38.090;-122.570;2022-12-11T17:04:08;0.50;;;0.20;;
37831;SDS011;23671;38.090;-122.570;2022-12-11T17:06:35;0.70;;;0.10;;
37831;SDS011;23671;38.090;-122.570;2022-12-11T17:09:02;0.50;;;0.30;;
37831;SDS011;23671;38.090;-122.570;2022-12-11T17:11:29;1.15;;;0.30;;
37831;SDS011;23671;38.090;-122.570;2022-12-11T17:13:57;0.20;;;0.10;;
37831;SDS011;23671;38.090;-122.570;2022-12-11T17:16:25;0.70;;;0.20;;